Date,TemperatureHighF,TemperatureAvgF,TemperatureLowF,DewpointHighF,DewpointAvgF,DewpointLowF,HumidityHigh,HumidityAvg,HumidityLow,PressureMaxIn,PressureMinIn,WindSpeedMaxMPH,WindSpeedAvgMPH,GustSpeedMaxMPH,PrecipitationSumIn
2013-3-1,52.9,50.4,46.3,46.9,45.4,44.0,93,83,79,30.37,30.31,5,2,14,0.00
2013-3-2,55.2,50.7,41.4,44.4,42.8,38.7,92,75,65,30.21,29.91,4,2,13,0.00
2013-3-3,46.5,44.5,42.2,24.0,21.4,18.8,47,40,36,30.11,30.01,6,3,18,0.00
2013-3-4,47.0,41.5,29.8,25.5,21.5,19.4,70,46,34,30.34,30.17,3,1,9,0.00
2013-3-5,42.0,38.0,29.2,31.5,26.2,22.7,82,63,47,30.09,29.92,4,2,10,0.00
2013-3-6,48.7,42.2,38.0,39.4,37.3,33.0,94,83,69,29.78,29.62,4,2,13,0.12
2013-3-7,45.3,41.4,36.9,39.0,37.1,35.4,95,85,70,30.09,30.06,3,2,8,0.17
2013-3-8,41.3,36.9,33.0,36.9,34.8,31.7,99,92,84,30.13,30.11,2,1,6,0.01
2013-3-9,52.5,42.8,35.9,32.4,31.4,29.3,84,66,41,30.45,30.39,2,0,10,0.01
2013-3-10,46.0,40.5,32.0,37.1,33.6,29.6,95,77,58,30.44,30.30,4,2,10,0.00
2013-3-11,51.2,46.2,39.3,31.1,27.0,23.0,67,48,34,30.35,30.26,4,1,9,0.01
2013-3-12,54.9,47.2,36.3,46.1,41.7,34.7,96,82,66,30.15,30.06,5,2,16,0.07
2013-3-13,57.3,54.0,46.2,45.2,43.4,40.7,81,67,60,30.18,30.13,4,1,9,0.01
2013-3-14,62.6,56.4,47.0,47.9,44.8,41.5,86,66,47,30.06,29.96,5,2,12,0.00
2013-3-15,60.2,51.9,41.6,44.0,41.0,36.8,91,68,44,30.15,30.05,5,2,15,0.01
2013-3-16,52.3,46.6,41.1,40.7,37.8,33.5,87,72,53,29.96,29.69,6,3,16,0.01
2013-3-17,41.7,41.6,41.6,23.9,23.8,23.8,49,49,49,30.00,30.00,1,1,4,0.00
2013-3-18,48.8,39.7,30.8,34.6,28.0,17.6,86,64,29,30.20,30.00,6,2,25,0.01
2013-3-19,49.0,43.5,28.4,30.6,25.5,19.2,89,52,31,30.34,30.02,5,2,13,0.00
2013-3-20,53.9,47.6,42.6,48.2,41.2,30.1,93,79,58,29.70,29.49,6,3,16,0.35
2013-3-21,45.4,39.1,33.0,27.6,24.0,18.1,78,55,36,30.05,29.99,6,3,18,0.01
2013-3-22,43.9,38.7,28.8,28.7,23.1,17.3,88,56,36,30.23,30.17,5,2,12,0.00
2013-3-23,42.4,36.8,28.7,29.1,25.2,21.6,83,64,45,30.41,30.34,5,1,12,0.00
2013-3-24,47.4,43.9,35.3,21.9,16.3,11.4,48,33,26,30.37,30.25,3,2,8,0.00
2013-3-25,52.6,43.5,29.5,30.0,26.4,21.4,78,52,36,30.24,30.05,3,1,9,0.00
2013-3-26,56.7,45.8,31.9,33.4,29.7,25.7,78,54,39,30.07,29.97,3,1,8,0.00
2013-3-27,57.8,53.2,41.6,40.3,37.7,31.1,69,56,50,30.03,29.97,3,1,8,0.00
2013-3-29,63.1,53.2,40.8,44.6,36.9,31.7,91,57,32,30.22,30.14,5,2,14,0.00
2013-3-30,66.0,53.1,39.1,44.1,38.8,33.4,84,61,36,30.31,30.22,3,1,7,0.00
2013-3-31,69.7,61.1,44.7,40.6,37.2,32.7,77,43,26,30.11,29.92,3,1,8,0.00